Time;durP1;ratioP1;P1;durP2;ratioP2;P2;SDS_P1;SDS_P2;PMS_P1;PMS_P2;Temp;Humidity;BMP_temperature;BMP_pressure;BME280_temperature;BME280_humidity;BME280_pressure;Samples;Min_cycle;Max_cycle;Signal;HPM_P1;HPM_P2
2023/03/08 00:02:12;;;;;;;9.60;5.50;;;6.20;67.70;;;;;;5012733;28;20037;-78
2023/03/08 00:04:38;;;;;;;9.90;5.60;;;6.20;67.80;;;;;;5031697;28;20059;-78
2023/03/08 00:07:03;;;;;;;9.63;5.97;;;6.20;67.70;;;;;;5030134;28;20112;-78
2023/03/08 00:09:29;;;;;;;11.88;6.60;;;6.20;67.80;;;;;;5033458;28;20106;-78
2023/03/08 00:11:54;;;;;;;19.58;8.93;;;6.20;67.70;;;;;;5017795;28;20037;-78
2023/03/08 00:14:21;;;;;;;16.30;7.18;;;6.20;67.70;;;;;;5017884;28;20037;-78
2023/03/08 00:16:46;;;;;;;26.17;11.32;;;6.20;67.70;;;;;;5013727;28;20462;-78
2023/03/08 00:19:12;;;;;;;19.95;9.00;;;6.10;67.60;;;;;;5017949;28;20033;-79
2023/03/08 00:21:38;;;;;;;22.20;9.45;;;6.10;67.60;;;;;;5028883;28;20022;-76
2023/03/08 00:24:03;;;;;;;22.77;9.02;;;6.10;67.60;;;;;;5029234;28;20384;-78
2023/03/08 00:26:29;;;;;;;28.80;11.82;;;6.10;67.60;;;;;;5015610;28;20160;-77
2023/03/08 00:28:55;;;;;;;17.48;8.43;;;6.10;67.60;;;;;;5011439;28;20124;-78
2023/03/08 00:31:20;;;;;;;16.67;7.97;;;6.10;67.60;;;;;;5015372;28;20052;-78
2023/03/08 00:33:46;;;;;;;19.40;9.23;;;6.20;67.80;;;;;;5032639;28;20029;-78
2023/03/08 00:36:15;;;;;;;14.07;6.75;;;6.10;67.80;;;;;;5026688;28;20120;-78
2023/03/08 00:38:41;;;;;;;14.77;6.55;;;6.10;67.90;;;;;;5000744;28;20147;-78
2023/03/08 00:41:06;;;;;;;10.52;5.78;;;6.10;68.00;;;;;;5003730;28;20040;-78
2023/03/08 00:43:32;;;;;;;10.35;6.40;;;6.10;68.10;;;;;;5014391;28;20043;-78
2023/03/08 00:45:58;;;;;;;11.77;6.25;;;6.10;68.20;;;;;;5002427;28;20048;-78
2023/03/08 00:48:23;;;;;;;10.75;6.03;;;6.10;68.40;;;;;;5012403;28;20037;-78
2023/03/08 00:50:49;;;;;;;11.00;6.43;;;6.10;68.60;;;;;;5029922;28;20048;-76
2023/03/08 00:53:14;;;;;;;12.18;6.25;;;6.10;68.70;;;;;;5031591;28;20033;-78
2023/03/08 00:55:51;;;;;;;8.65;5.45;;;6.10;68.80;;;;;;5014102;28;21313;-78
2023/03/08 00:58:16;;;;;;;11.95;5.85;;;6.10;69.00;;;;;;5027658;28;20040;-77
2023/03/08 01:00:42;;;;;;;8.70;5.40;;;6.00;68.90;;;;;;5029114;28;20044;-78
2023/03/08 01:03:08;;;;;;;10.10;5.40;;;6.10;69.10;;;;;;5013234;28;20033;-78
2023/03/08 01:05:37;;;;;;;9.30;5.25;;;6.00;69.20;;;;;;5030681;28;20059;-77
2023/03/08 01:08:03;;;;;;;7.65;4.93;;;6.00;69.30;;;;;;5012999;28;20064;-78
2023/03/08 01:10:29;;;;;;;9.15;6.00;;;6.00;69.40;;;;;;4994880;28;21394;-78
2023/03/08 01:12:54;;;;;;;9.05;5.50;;;6.00;69.50;;;;;;5016819;28;20037;-78
2023/03/08 01:15:20;;;;;;;8.73;5.22;;;6.00;69.50;;;;;;5026411;28;20677;-78
2023/03/08 01:17:45;;;;;;;6.70;4.32;;;6.00;69.60;;;;;;5018844;28;20968;-77
2023/03/08 01:20:11;;;;;;;10.55;5.15;;;6.00;69.70;;;;;;5028327;28;20041;-78
2023/03/08 01:22:37;;;;;;;9.20;5.43;;;5.90;69.80;;;;;;5026031;28;20037;-77
2023/03/08 01:25:03;;;;;;;8.60;5.32;;;5.90;69.90;;;;;;5031431;28;20030;-79
2023/03/08 01:27:28;;;;;;;8.48;4.78;;;5.90;70.00;;;;;;5030181;28;20029;-76
2023/03/08 01:29:54;;;;;;;9.88;6.53;;;5.90;70.10;;;;;;5017782;28;20034;-77
2023/03/08 01:32:19;;;;;;;9.70;5.68;;;5.90;70.20;;;;;;4989507;28;20054;-78
2023/03/08 01:34:45;;;;;;;9.35;5.75;;;5.90;70.20;;;;;;5016652;28;20577;-78
2023/03/08 01:37:10;;;;;;;10.02;6.10;;;5.80;70.20;;;;;;5026502;28;20057;-77
2023/03/08 01:39:36;;;;;;;12.93;6.07;;;5.80;70.20;;;;;;5013760;28;20454;-77
2023/03/08 01:42:05;;;;;;;9.18;5.38;;;5.80;70.20;;;;;;5023918;28;20537;-77
2023/03/08 01:44:54;;;;;;;7.72;4.90;;;5.80;70.20;;;;;;5044343;28;20153;-77
2023/03/08 01:47:23;;;;;;;9.05;4.80;;;5.80;70.50;;;;;;5036990;28;20037;-77
2023/03/08 01:49:49;;;;;;;10.82;6.03;;;5.80;70.30;;;;;;5039395;28;20033;-76
2023/03/08 01:52:20;;;;;;;8.73;5.47;;;5.80;70.30;;;;;;5035599;28;20049;-77
2023/03/08 01:54:48;;;;;;;11.23;6.40;;;5.80;70.40;;;;;;5011036;28;20025;-78
2023/03/08 01:57:33;;;;;;;9.18;5.18;;;5.80;70.30;;;;;;5013639;28;20036;-78
2023/03/08 02:00:12;;;;;;;17.83;9.82;;;5.80;70.40;;;;;;4979419;28;20030;-77
2023/03/08 02:03:04;;;;;;;11.50;6.88;;;5.70;70.30;;;;;;5010210;28;20029;-78
2023/03/08 02:05:30;;;;;;;10.13;6.07;;;5.70;70.30;;;;;;5026888;28;20101;-79
2023/03/08 02:07:55;;;;;;;8.77;5.35;;;5.70;70.20;;;;;;5014925;28;20116;-78
2023/03/08 02:10:21;;;;;;;11.73;6.13;;;5.70;70.30;;;;;;5028577;28;20824;-78
2023/03/08 02:12:47;;;;;;;12.63;5.82;;;5.70;70.30;;;;;;5025613;28;20115;-78
2023/03/08 02:15:14;;;;;;;10.18;5.40;;;5.70;70.30;;;;;;5016095;28;20037;-78
2023/03/08 02:17:41;;;;;;;11.00;5.97;;;5.70;70.40;;;;;;5013215;28;20137;-77
2023/03/08 02:20:15;;;;;;;9.23;5.60;;;5.70;70.50;;;;;;5012555;28;20040;-77
2023/03/08 02:22:41;;;;;;;7.30;4.88;;;5.70;70.60;;;;;;5019165;28;20053;-78
2023/03/08 02:25:14;;;;;;;10.88;6.50;;;5.70;70.70;;;;;;4990508;28;20139;-78
2023/03/08 02:27:40;;;;;;;8.60;5.78;;;5.70;70.90;;;;;;5013735;28;20068;-77
2023/03/08 02:30:17;;;;;;;13.88;6.53;;;5.70;70.90;;;;;;5012290;28;20128;-78
2023/03/08 02:32:42;;;;;;;12.35;5.70;;;5.70;71.10;;;;;;4997922;28;20388;-78
2023/03/08 02:35:08;;;;;;;8.15;5.10;;;5.70;71.00;;;;;;5012282;28;20049;-78
2023/03/08 02:37:34;;;;;;;10.18;5.38;;;5.60;71.00;;;;;;5029420;28;20048;-77
2023/03/08 02:39:59;;;;;;;9.90;6.32;;;5.60;71.20;;;;;;4996438;28;20044;-76
2023/03/08 02:42:25;;;;;;;8.00;4.47;;;5.70;71.30;;;;;;5026456;28;20038;-77
2023/03/08 02:44:50;;;;;;;7.68;4.57;;;5.60;71.30;;;;;;5029905;28;20423;-77
2023/03/08 02:47:16;;;;;;;8.65;5.47;;;5.60;71.40;;;;;;5031852;28;20120;-78
2023/03/08 02:49:41;;;;;;;9.38;5.47;;;5.60;71.50;;;;;;5033313;28;20046;-78
2023/03/08 02:52:07;;;;;;;10.77;6.13;;;5.60;71.60;;;;;;5015487;28;20033;-78
2023/03/08 02:54:32;;;;;;;10.10;6.75;;;5.60;71.70;;;;;;5013042;28;20457;-77
2023/03/08 02:56:58;;;;;;;10.30;6.38;;;5.60;71.80;;;;;;5006852;28;20548;-78
2023/03/08 02:59:23;;;;;;;9.30;5.75;;;5.50;71.80;;;;;;5007897;28;20044;-77
2023/03/08 03:01:49;;;;;;;10.25;6.57;;;5.50;71.90;;;;;;5007564;28;20042;-76
2023/03/08 03:04:15;;;;;;;8.25;5.05;;;5.50;72.00;;;;;;5014812;28;20049;-77
2023/03/08 03:06:40;;;;;;;10.48;6.63;;;5.50;72.10;;;;;;4987034;28;20137;-78
2023/03/08 03:09:07;;;;;;;10.30;6.60;;;5.50;72.20;;;;;;5005929;28;20037;-78
2023/03/08 03:11:32;;;;;;;11.75;6.93;;;5.50;72.30;;;;;;5016323;28;20797;-77
2023/03/08 03:13:58;;;;;;;7.53;4.85;;;5.50;72.30;;;;;;4990275;28;20141;-77
2023/03/08 03:16:24;;;;;;;12.05;5.78;;;5.50;72.40;;;;;;4992940;28;20095;-76
2023/03/08 03:18:50;;;;;;;13.32;7.15;;;5.50;72.50;;;;;;4989709;28;20072;-77
2023/03/08 03:21:16;;;;;;;10.05;6.40;;;5.40;72.40;;;;;;5014149;28;20079;-78
2023/03/08 03:23:41;;;;;;;8.90;5.82;;;5.40;72.50;;;;;;4985452;28;20504;-76
2023/03/08 03:26:09;;;;;;;11.25;6.28;;;5.40;72.50;;;;;;5005652;28;20590;-78
2023/03/08 03:28:34;;;;;;;12.55;5.88;;;5.40;72.60;;;;;;4993667;28;20070;-77
2023/03/08 03:31:00;;;;;;;12.00;6.28;;;5.40;72.50;;;;;;5006322;28;20727;-77
2023/03/08 03:33:26;;;;;;;8.80;5.15;;;5.40;72.50;;;;;;5012590;28;20776;-77
2023/03/08 03:35:51;;;;;;;8.93;5.05;;;5.40;72.60;;;;;;5026625;28;20041;-77
2023/03/08 03:38:17;;;;;;;10.25;5.25;;;5.40;72.60;;;;;;5046838;28;20044;-78
2023/03/08 03:40:43;;;;;;;10.52;5.18;;;5.40;72.40;;;;;;5019687;28;20751;-77
2023/03/08 03:43:08;;;;;;;11.43;5.88;;;5.30;72.20;;;;;;5024345;28;20109;-78
2023/03/08 03:45:34;;;;;;;9.95;5.30;;;5.40;72.00;;;;;;5017453;28;20037;-77
2023/03/08 03:48:00;;;;;;;7.97;5.03;;;5.30;71.90;;;;;;5013238;28;20033;-77
2023/03/08 03:50:25;;;;;;;8.88;5.65;;;5.30;71.70;;;;;;5032519;28;20669;-75
2023/03/08 03:52:51;;;;;;;9.98;5.15;;;5.30;71.60;;;;;;5026303;28;20100;-78
2023/03/08 03:55:16;;;;;;;9.90;4.90;;;5.40;71.60;;;;;;5054339;28;20036;-77
2023/03/08 03:57:42;;;;;;;9.10;4.63;;;5.30;71.50;;;;;;5028998;28;20178;-78
2023/03/08 04:00:08;;;;;;;9.70;5.18;;;5.30;71.40;;;;;;5053029;28;20043;-78
2023/03/08 04:02:34;;;;;;;9.05;5.05;;;5.40;71.30;;;;;;5025347;28;20060;-77
2023/03/08 04:04:59;;;;;;;8.98;5.20;;;5.30;71.20;;;;;;5015417;28;20068;-77
2023/03/08 04:07:25;;;;;;;10.15;5.13;;;5.40;71.10;;;;;;4998257;28;20443;-78
2023/03/08 04:09:51;;;;;;;8.60;5.05;;;5.40;71.00;;;;;;5019082;28;20036;-76
2023/03/08 04:12:16;;;;;;;9.23;5.45;;;5.30;70.90;;;;;;5036382;28;20028;-77
2023/03/08 04:14:42;;;;;;;9.55;5.07;;;5.40;70.90;;;;;;5031066;28;20113;-78
2023/03/08 04:17:07;;;;;;;8.30;4.97;;;5.40;70.80;;;;;;5002001;28;20384;-77
2023/03/08 04:19:33;;;;;;;9.43;4.20;;;5.30;70.80;;;;;;5034441;28;20041;-78
2023/03/08 04:21:58;;;;;;;8.60;5.03;;;5.40;70.70;;;;;;5016389;28;20029;-75
2023/03/08 04:24:24;;;;;;;9.25;5.10;;;5.40;70.70;;;;;;5014726;28;20118;-77
2023/03/08 04:26:49;;;;;;;13.57;7.78;;;5.30;70.50;;;;;;5017855;28;20773;-76
2023/03/08 04:29:15;;;;;;;11.90;5.38;;;5.30;70.50;;;;;;5013586;28;20048;-78
2023/03/08 04:31:40;;;;;;;11.40;5.38;;;5.30;70.40;;;;;;5008521;28;20678;-78
2023/03/08 04:34:06;;;;;;;11.88;6.30;;;5.30;70.30;;;;;;5032513;28;20515;-78
2023/03/08 04:36:31;;;;;;;8.50;4.72;;;5.30;70.30;;;;;;5011986;28;20541;-77
2023/03/08 04:38:57;;;;;;;9.00;5.03;;;5.30;70.20;;;;;;4989502;28;20461;-77
2023/03/08 04:41:22;;;;;;;24.75;15.52;;;5.30;70.20;;;;;;5012378;28;20150;-78
2023/03/08 04:43:53;;;;;;;11.98;7.40;;;5.30;70.20;;;;;;5003049;28;20551;-77
2023/03/08 04:46:20;;;;;;;8.23;5.13;;;5.30;70.20;;;;;;5023098;28;20105;-78
2023/03/08 04:48:46;;;;;;;17.65;10.05;;;5.30;70.20;;;;;;5014776;28;20052;-77
2023/03/08 04:51:12;;;;;;;8.05;5.00;;;5.30;70.20;;;;;;5011131;28;20040;-78
2023/03/08 04:53:38;;;;;;;8.95;5.70;;;5.30;70.10;;;;;;5005204;28;20048;-77
2023/03/08 04:56:04;;;;;;;8.65;5.15;;;5.30;70.00;;;;;;5037351;28;20041;-79
2023/03/08 04:58:30;;;;;;;9.35;5.45;;;5.30;70.00;;;;;;4998754;28;20052;-77
2023/03/08 05:00:56;;;;;;;9.80;5.00;;;5.20;69.90;;;;;;5028481;28;20083;-78
2023/03/08 05:03:21;;;;;;;10.20;4.90;;;5.20;69.90;;;;;;5026460;28;20522;-77
2023/03/08 05:05:48;;;;;;;8.23;4.85;;;5.10;69.80;;;;;;5002838;28;20040;-78
2023/03/08 05:08:14;;;;;;;8.20;4.82;;;5.10;69.90;;;;;;5032452;28;20042;-77
2023/03/08 05:10:45;;;;;;;10.25;5.00;;;5.10;69.90;;;;;;5019554;28;20037;-78
2023/03/08 05:13:10;;;;;;;10.30;4.75;;;5.10;69.90;;;;;;5016163;28;20033;-78
2023/03/08 05:15:36;;;;;;;15.77;5.38;;;5.10;69.90;;;;;;5016989;28;20036;-75
2023/03/08 05:18:01;;;;;;;8.88;4.80;;;5.00;69.80;;;;;;5028513;28;20037;-76
2023/03/08 05:20:27;;;;;;;8.30;5.22;;;5.00;69.80;;;;;;5012343;28;20076;-77
2023/03/08 05:22:52;;;;;;;10.70;4.90;;;5.00;69.80;;;;;;4990154;28;20030;-77
2023/03/08 05:25:18;;;;;;;10.07;5.45;;;5.00;69.80;;;;;;5020073;28;21305;-77
2023/03/08 05:27:43;;;;;;;9.32;5.00;;;5.00;69.90;;;;;;5018404;28;20495;-78
2023/03/08 05:30:10;;;;;;;8.70;4.85;;;4.90;69.80;;;;;;5024051;28;20041;-78
2023/03/08 05:32:35;;;;;;;10.32;5.32;;;4.90;69.90;;;;;;4992580;28;20877;-76
2023/03/08 05:35:01;;;;;;;10.35;5.22;;;4.90;69.80;;;;;;5042271;28;20055;-76
2023/03/08 05:37:26;;;;;;;9.60;4.82;;;4.90;69.80;;;;;;5012921;28;20040;-78
2023/03/08 05:39:52;;;;;;;10.45;4.90;;;4.90;69.80;;;;;;5014721;28;20104;-77
2023/03/08 05:42:18;;;;;;;8.50;5.38;;;4.90;69.80;;;;;;4981560;28;20043;-78
2023/03/08 05:44:44;;;;;;;9.35;4.72;;;4.80;69.80;;;;;;5017205;28;20046;-75
2023/03/08 05:47:09;;;;;;;6.72;4.50;;;4.80;69.80;;;;;;5030598;28;20798;-78
2023/03/08 05:49:35;;;;;;;11.38;5.75;;;4.80;69.80;;;;;;5002457;28;20036;-77
2023/03/08 05:52:00;;;;;;;11.15;5.88;;;4.80;69.70;;;;;;5030238;28;21462;-78
2023/03/08 05:54:26;;;;;;;9.02;5.32;;;4.80;69.70;;;;;;4994132;28;20404;-78
2023/03/08 05:56:51;;;;;;;10.98;4.82;;;4.80;69.70;;;;;;5005756;28;20047;-77
2023/03/08 05:59:18;;;;;;;119.40;39.42;;;4.80;69.80;;;;;;5035302;28;20098;-79
2023/03/08 06:01:43;;;;;;;180.45;59.22;;;4.80;69.90;;;;;;5005317;28;20037;-78
2023/03/08 06:04:09;;;;;;;326.55;96.32;;;4.80;69.90;;;;;;5040265;28;20046;-78
2023/03/08 06:06:34;;;;;;;69.88;27.77;;;4.80;69.90;;;;;;5006102;28;20040;-77
2023/03/08 06:09:00;;;;;;;54.78;23.65;;;4.80;69.90;;;;;;5021749;28;20029;-77
2023/03/08 06:11:25;;;;;;;16.85;7.88;;;4.80;70.00;;;;;;5030803;28;20033;-78
2023/03/08 06:13:51;;;;;;;35.90;16.98;;;4.80;69.90;;;;;;5026079;28;20037;-79
2023/03/08 06:16:16;;;;;;;40.70;15.88;;;4.80;69.90;;;;;;5025232;28;20056;-78
2023/03/08 06:18:42;;;;;;;48.15;18.63;;;4.80;70.00;;;;;;5003201;28;20048;-78
2023/03/08 06:21:10;;;;;;;18.33;9.43;;;4.80;70.00;;;;;;5031522;28;20422;-77
2023/03/08 06:23:35;;;;;;;25.73;11.18;;;4.80;70.10;;;;;;5034744;28;20060;-78
2023/03/08 06:26:01;;;;;;;18.90;9.57;;;4.80;70.00;;;;;;5029204;28;20119;-78
2023/03/08 06:28:27;;;;;;;13.80;7.38;;;4.80;70.10;;;;;;5030253;28;20495;-79
2023/03/08 06:30:52;;;;;;;19.25;8.52;;;4.80;70.10;;;;;;5025150;28;20577;-78
2023/03/08 06:33:19;;;;;;;13.57;6.63;;;4.70;70.10;;;;;;5019196;28;20608;-78
2023/03/08 06:35:58;;;;;;;12.88;6.80;;;4.80;70.30;;;;;;5006865;28;20044;-78
2023/03/08 06:38:23;;;;;;;11.65;6.32;;;4.80;70.40;;;;;;5013917;28;20033;-79
2023/03/08 06:40:50;;;;;;;14.25;7.10;;;4.80;70.40;;;;;;5012286;28;20053;-77
2023/03/08 06:43:15;;;;;;;10.68;6.75;;;4.80;70.50;;;;;;5018378;28;20490;-77
2023/03/08 06:45:41;;;;;;;11.40;6.18;;;4.70;70.60;;;;;;5006222;28;20066;-79
2023/03/08 06:48:07;;;;;;;13.35;6.45;;;4.70;70.80;;;;;;5027330;28;20040;-74
2023/03/08 06:50:33;;;;;;;10.63;6.07;;;4.70;70.90;;;;;;5016841;28;20041;-79
2023/03/08 06:52:58;;;;;;;9.10;5.45;;;4.70;71.10;;;;;;5029763;28;20109;-77
2023/03/08 06:55:24;;;;;;;14.93;6.90;;;4.70;71.20;;;;;;4990626;28;20099;-79
2023/03/08 06:57:50;;;;;;;12.88;6.07;;;4.70;71.40;;;;;;4990914;28;20048;-78
2023/03/08 07:00:16;;;;;;;12.40;5.88;;;4.60;71.50;;;;;;5026239;28;20067;-79
2023/03/08 07:02:41;;;;;;;10.15;6.10;;;4.60;71.60;;;;;;5012280;28;20048;-79
2023/03/08 07:05:07;;;;;;;8.90;5.38;;;4.60;71.90;;;;;;5026284;28;20624;-75
2023/03/08 07:07:34;;;;;;;8.95;5.53;;;4.60;72.00;;;;;;5013032;28;20127;-76
2023/03/08 07:10:00;;;;;;;8.43;4.85;;;4.50;72.10;;;;;;5012283;28;20287;-78
2023/03/08 07:12:25;;;;;;;9.10;5.60;;;4.50;72.20;;;;;;5023955;28;20450;-78
2023/03/08 07:14:52;;;;;;;9.32;5.22;;;4.60;72.50;;;;;;5012585;28;20041;-78
2023/03/08 07:17:18;;;;;;;9.98;5.55;;;4.50;72.60;;;;;;5014774;28;20032;-77
2023/03/08 07:19:44;;;;;;;15.48;7.28;;;4.60;72.70;;;;;;5027318;28;20372;-77
2023/03/08 07:22:11;;;;;;;12.10;6.65;;;4.50;72.80;;;;;;5026358;28;20083;-78
2023/03/08 07:24:37;;;;;;;13.02;7.10;;;4.50;73.00;;;;;;5025163;28;20483;-79
2023/03/08 07:27:03;;;;;;;14.25;6.53;;;4.60;73.10;;;;;;5015579;28;20036;-79
2023/03/08 07:29:28;;;;;;;12.40;7.13;;;4.60;73.20;;;;;;5021768;28;20035;-80
2023/03/08 07:31:54;;;;;;;17.60;8.88;;;4.60;73.30;;;;;;5013323;28;20037;-78
2023/03/08 07:34:20;;;;;;;20.25;9.18;;;4.50;73.40;;;;;;5013182;28;20064;-79
2023/03/08 07:36:45;;;;;;;31.42;12.52;;;4.50;73.40;;;;;;5010257;28;20484;-78
2023/03/08 07:39:11;;;;;;;25.45;11.55;;;4.60;74.30;;;;;;5008993;28;20047;-79
2023/03/08 07:41:36;;;;;;;30.33;12.90;;;4.50;73.50;;;;;;5026414;28;20595;-75
2023/03/08 07:44:02;;;;;;;20.98;9.77;;;4.50;73.60;;;;;;5016293;28;20575;-79
2023/03/08 07:46:28;;;;;;;14.18;7.35;;;4.50;73.80;;;;;;5024062;28;20544;-79
2023/03/08 07:48:54;;;;;;;15.70;8.00;;;4.50;73.90;;;;;;4996439;28;20095;-79
2023/03/08 07:51:19;;;;;;;18.83;8.15;;;4.50;74.00;;;;;;4989854;28;20065;-80
2023/03/08 07:53:45;;;;;;;13.90;6.90;;;4.50;74.20;;;;;;4999005;28;20057;-79
2023/03/08 07:56:10;;;;;;;12.48;7.43;;;4.50;74.30;;;;;;4987657;28;20060;-80
2023/03/08 07:58:36;;;;;;;14.25;6.45;;;4.40;74.30;;;;;;5010101;28;20040;-77
2023/03/08 08:01:10;;;;;;;12.13;6.60;;;4.40;74.40;;;;;;5005314;28;20095;-78
2023/03/08 08:03:36;;;;;;;12.20;6.32;;;4.40;74.60;;;;;;4992451;28;20026;-78
2023/03/08 08:06:03;;;;;;;11.93;7.22;;;4.40;74.50;;;;;;4993092;28;20057;-79
2023/03/08 08:08:28;;;;;;;12.43;7.05;;;4.30;74.70;;;;;;5003898;28;20065;-80
2023/03/08 08:10:54;;;;;;;14.38;7.60;;;4.30;74.90;;;;;;5002679;28;20089;-80
2023/03/08 08:13:19;;;;;;;53.63;20.55;;;4.30;75.00;;;;;;4978017;28;20025;-77
2023/03/08 08:15:45;;;;;;;25.25;10.20;;;4.30;75.10;;;;;;4978195;28;20169;-79
2023/03/08 08:18:11;;;;;;;32.33;11.93;;;4.30;75.30;;;;;;5009213;28;20038;-80
2023/03/08 08:20:36;;;;;;;42.22;14.38;;;4.30;75.30;;;;;;4991855;28;20492;-77
2023/03/08 08:23:05;;;;;;;50.60;15.95;;;4.30;75.40;;;;;;5014591;28;20025;-79
2023/03/08 08:25:30;;;;;;;33.97;11.52;;;4.30;75.60;;;;;;4995278;28;20042;-79
2023/03/08 08:27:56;;;;;;;22.13;11.05;;;4.30;75.60;;;;;;4989976;28;20646;-79
2023/03/08 08:30:22;;;;;;;45.05;18.73;;;4.30;75.70;;;;;;4989803;28;20033;-80
2023/03/08 08:32:47;;;;;;;28.50;12.27;;;4.30;75.70;;;;;;5009920;28;20036;-79
2023/03/08 08:35:13;;;;;;;15.20;7.72;;;4.20;75.80;;;;;;4987660;28;20049;-79
2023/03/08 08:37:38;;;;;;;24.63;11.30;;;4.20;75.80;;;;;;5010910;28;20034;-79
2023/03/08 08:40:06;;;;;;;14.32;7.60;;;4.20;75.90;;;;;;5011536;28;20547;-79
2023/03/08 08:42:32;;;;;;;15.77;9.02;;;4.20;76.00;;;;;;4984127;28;20125;-80
2023/03/08 08:44:57;;;;;;;18.88;9.38;;;4.20;76.10;;;;;;5010718;28;20042;-78
2023/03/08 08:47:23;;;;;;;16.83;8.70;;;4.20;76.20;;;;;;5009252;28;20025;-79
2023/03/08 08:49:48;;;;;;;15.10;8.50;;;4.10;76.20;;;;;;5017344;28;20045;-77
2023/03/08 08:52:14;;;;;;;14.82;7.57;;;4.20;76.40;;;;;;5008903;28;20040;-78
2023/03/08 08:54:40;;;;;;;12.40;7.07;;;4.20;76.40;;;;;;5015625;28;20049;-80
2023/03/08 08:57:05;;;;;;;11.77;7.45;;;4.20;76.60;;;;;;5016123;28;20128;-80
2023/03/08 08:59:31;;;;;;;14.90;7.18;;;4.20;76.60;;;;;;5013093;28;20038;-79
2023/03/08 09:01:57;;;;;;;15.20;7.45;;;4.20;76.70;;;;;;4994132;28;20037;-79
2023/03/08 09:04:22;;;;;;;12.63;7.57;;;4.20;76.70;;;;;;5015658;28;20048;-79
2023/03/08 09:06:48;;;;;;;11.05;6.55;;;4.20;76.80;;;;;;4994462;28;20022;-79
2023/03/08 09:09:14;;;;;;;11.57;7.10;;;4.20;76.80;;;;;;5001983;28;20053;-79
2023/03/08 09:11:40;;;;;;;14.48;7.55;;;4.10;76.80;;;;;;4995279;28;20106;-80
2023/03/08 09:14:05;;;;;;;13.07;6.45;;;4.10;77.00;;;;;;5013538;28;20042;-79
2023/03/08 09:16:32;;;;;;;12.88;5.68;;;4.10;77.00;;;;;;4996149;28;22888;-79
2023/03/08 09:18:58;;;;;;;11.05;6.93;;;4.10;77.10;;;;;;5015818;28;20098;-80
2023/03/08 09:21:24;;;;;;;9.38;5.25;;;4.10;77.20;;;;;;5002274;28;20041;-79
2023/03/08 09:23:50;;;;;;;12.48;6.97;;;4.10;77.20;;;;;;4980744;28;20033;-80
2023/03/08 09:26:15;;;;;;;12.63;6.45;;;4.10;77.30;;;;;;5006701;28;20103;-78
2023/03/08 09:28:41;;;;;;;13.75;7.22;;;4.10;77.40;;;;;;5000675;28;20593;-80
2023/03/08 09:31:13;;;;;;;13.60;6.82;;;4.10;77.40;;;;;;4998476;28;20037;-76
2023/03/08 09:33:43;;;;;;;12.70;6.40;;;4.10;77.40;;;;;;4999486;28;20033;-81
2023/03/08 09:36:09;;;;;;;14.45;6.03;;;4.00;77.40;;;;;;4981108;28;20042;-80
2023/03/08 09:38:34;;;;;;;11.90;7.18;;;4.00;77.60;;;;;;5032127;28;20049;-77
2023/03/08 09:41:21;;;;;;;10.43;6.03;;;4.00;78.30;;;;;;5031530;28;20682;-80
2023/03/08 09:43:53;;;;;;;11.95;7.00;;;4.00;77.80;;;;;;4996769;28;20034;-80
2023/03/08 09:46:27;;;;;;;9.45;6.00;;;3.90;77.60;;;;;;5012095;28;20041;-79
2023/03/08 09:48:52;;;;;;;11.82;6.28;;;3.90;77.70;;;;;;4998332;28;20038;-80
2023/03/08 09:51:18;;;;;;;11.00;6.65;;;3.90;77.80;;;;;;5017598;28;20026;-79
2023/03/08 09:53:53;;;;;;;9.65;6.18;;;3.90;77.90;;;;;;5004226;28;20492;-81
2023/03/08 09:56:19;;;;;;;11.63;6.75;;;3.90;78.00;;;;;;4993334;28;20510;-81
2023/03/08 09:58:57;;;;;;;10.38;5.75;;;3.90;78.00;;;;;;5027144;28;20033;-79
2023/03/08 10:01:39;;;;;;;10.70;6.78;;;3.90;78.30;;;;;;5013058;28;20585;-80
2023/03/08 10:04:30;;;;;;;11.45;6.93;;;3.90;78.40;;;;;;5019739;28;20844;-79
2023/03/08 10:07:16;;;;;;;9.45;5.57;;;3.90;78.50;;;;;;5018360;28;20040;-79
2023/03/08 10:10:06;;;;;;;9.35;5.78;;;3.90;78.40;;;;;;5017813;28;20037;-81
2023/03/08 10:12:49;;;;;;;10.77;5.82;;;3.90;78.50;;;;;;5012633;28;20504;-81
2023/03/08 10:15:17;;;;;;;11.93;6.85;;;3.90;78.50;;;;;;5035864;28;20133;-78
2023/03/08 10:17:51;;;;;;;10.07;6.45;;;3.90;78.20;;;;;;5018824;28;20064;-80
2023/03/08 10:20:23;;;;;;;11.38;6.75;;;3.90;78.30;;;;;;5006884;28;20056;-79
2023/03/08 10:22:54;;;;;;;11.40;6.75;;;3.90;78.40;;;;;;5013120;28;20079;-78
2023/03/08 10:25:32;;;;;;;11.77;6.82;;;3.90;78.40;;;;;;5013446;28;20030;-81
2023/03/08 10:27:59;;;;;;;10.85;6.03;;;3.90;78.50;;;;;;5017060;28;20104;-80
2023/03/08 10:30:36;;;;;;;10.40;5.72;;;3.90;78.50;;;;;;5019406;28;20040;-81
2023/03/08 10:33:05;;;;;;;11.20;6.28;;;3.90;78.50;;;;;;5018810;28;20045;-79
2023/03/08 10:35:36;;;;;;;12.30;7.28;;;3.90;78.50;;;;;;4998881;28;20045;-81
2023/03/08 10:38:03;;;;;;;12.60;6.32;;;3.90;78.60;;;;;;5030578;28;20061;-80
2023/03/08 10:40:28;;;;;;;11.10;5.95;;;3.90;78.70;;;;;;5017054;28;20068;-81
2023/03/08 10:43:00;;;;;;;10.60;6.35;;;3.90;78.60;;;;;;5016876;28;20045;-80
2023/03/08 10:45:27;;;;;;;9.10;6.07;;;3.90;78.70;;;;;;5003078;28;20072;-80
2023/03/08 10:47:53;;;;;;;11.38;6.38;;;3.80;78.70;;;;;;5006299;28;20527;-78
2023/03/08 10:50:24;;;;;;;11.45;6.32;;;3.70;78.80;;;;;;5024251;28;20091;-80
2023/03/08 10:52:50;;;;;;;11.27;6.53;;;3.70;78.90;;;;;;5024361;28;20040;-79
2023/03/08 10:55:45;;;;;;;8.75;5.72;;;3.70;78.80;;;;;;5000586;28;20051;-79
2023/03/08 10:58:31;;;;;;;8.20;5.68;;;3.70;79.30;;;;;;5032655;28;20741;-80
2023/03/08 11:01:03;;;;;;;8.45;4.80;;;3.60;79.30;;;;;;5032904;28;20037;-79
2023/03/08 11:03:29;;;;;;;9.43;5.53;;;3.70;79.20;;;;;;5011747;28;20030;-80
2023/03/08 11:05:58;;;;;;;9.27;5.18;;;3.70;79.20;;;;;;5019645;28;20057;-79
2023/03/08 11:08:35;;;;;;;8.98;5.35;;;3.70;79.30;;;;;;5020609;28;20121;-79
2023/03/08 11:11:01;;;;;;;8.40;4.95;;;3.70;79.30;;;;;;5013997;28;20037;-78
2023/03/08 11:13:35;;;;;;;8.25;5.30;;;3.70;79.40;;;;;;5014540;28;20488;-79
2023/03/08 11:16:43;;;;;;;11.35;6.03;;;3.70;79.40;;;;;;5016845;28;20116;-79
2023/03/08 11:19:34;;;;;;;7.70;4.88;;;3.70;79.80;;;;;;5019408;28;20045;-78
2023/03/08 11:22:02;;;;;;;8.80;5.13;;;3.70;79.70;;;;;;5016934;28;20029;-78
2023/03/08 11:25:01;;;;;;;9.85;5.63;;;3.70;79.40;;;;;;5011931;28;20046;-79
2023/03/08 11:27:51;;;;;;;9.50;5.60;;;3.70;79.70;;;;;;5032173;28;20034;-81
2023/03/08 11:30:27;;;;;;;8.48;5.47;;;3.70;79.80;;;;;;5009847;28;20048;-81
2023/03/08 11:33:00;;;;;;;8.85;5.05;;;3.80;79.70;;;;;;5033223;28;20805;-79
2023/03/08 11:35:33;;;;;;;8.38;5.60;;;3.70;79.70;;;;;;5012605;28;20042;-78
2023/03/08 11:38:13;;;;;;;7.95;5.45;;;3.70;79.60;;;;;;5013623;28;20048;-81
2023/03/08 11:40:55;;;;;;;8.68;6.35;;;3.70;79.60;;;;;;5000491;28;20663;-80
2023/03/08 11:43:39;;;;;;;10.25;6.28;;;3.70;79.90;;;;;;5030507;28;20089;-77
2023/03/08 11:46:16;;;;;;;10.23;6.47;;;3.70;80.00;;;;;;5028414;28;20049;-79
2023/03/08 11:49:11;;;;;;;11.25;6.95;;;3.80;79.80;;;;;;5011592;28;20042;-80
2023/03/08 11:51:46;;;;;;;9.90;6.07;;;3.80;80.00;;;;;;5012806;28;20049;-78
2023/03/08 11:54:30;;;;;;;9.90;5.88;;;3.80;79.90;;;;;;5012925;28;20041;-80
2023/03/08 11:57:00;;;;;;;10.70;6.03;;;3.80;79.80;;;;;;4997477;28;20523;-81
2023/03/08 11:59:28;;;;;;;10.93;6.78;;;3.80;79.80;;;;;;4999156;28;20050;-78
2023/03/08 12:02:11;;;;;;;9.68;6.13;;;3.80;79.90;;;;;;5026314;28;20035;-78
2023/03/08 12:04:48;;;;;;;8.02;4.95;;;3.80;80.00;;;;;;4999101;28;20040;-78
2023/03/08 12:07:38;;;;;;;9.57;6.00;;;3.80;79.90;;;;;;5005791;28;20034;-80
2023/03/08 12:10:11;;;;;;;7.30;4.97;;;3.80;80.20;;;;;;4992589;28;20045;-79
2023/03/08 12:12:47;;;;;;;7.60;4.93;;;3.80;80.10;;;;;;5012016;28;20096;-77
2023/03/08 12:15:30;;;;;;;7.03;5.07;;;3.80;80.00;;;;;;5000435;28;20033;-80
2023/03/08 12:18:06;;;;;;;6.82;4.65;;;3.80;80.20;;;;;;5015603;28;20053;-79
2023/03/08 12:20:35;;;;;;;6.75;4.57;;;3.80;80.30;;;;;;4998541;28;20029;-79
2023/03/08 12:23:18;;;;;;;7.97;5.30;;;3.70;80.10;;;;;;4987900;28;20071;-80
2023/03/08 12:25:45;;;;;;;7.22;5.05;;;3.80;80.50;;;;;;5009742;28;21255;-80
2023/03/08 12:28:19;;;;;;;9.75;5.25;;;3.80;80.20;;;;;;5012174;28;20797;-79
2023/03/08 12:31:18;;;;;;;9.57;5.60;;;3.80;80.40;;;;;;4994127;28;20041;-80
2023/03/08 12:33:46;;;;;;;10.02;6.97;;;3.80;80.70;;;;;;5012316;28;20041;-79
2023/03/08 12:36:11;;;;;;;12.23;6.50;;;3.80;80.30;;;;;;5030456;28;20052;-78
2023/03/08 12:38:44;;;;;;;7.22;4.78;;;3.80;80.40;;;;;;5027759;28;20041;-78
2023/03/08 12:41:28;;;;;;;7.72;4.50;;;3.80;80.60;;;;;;5018478;28;20091;-79
2023/03/08 12:44:02;;;;;;;8.38;5.70;;;3.80;80.80;;;;;;5017463;28;20061;-79
2023/03/08 12:46:28;;;;;;;7.03;4.88;;;3.80;80.60;;;;;;4993853;28;20037;-80
2023/03/08 12:48:53;;;;;;;7.50;4.75;;;3.80;80.60;;;;;;4999244;28;20709;-80
2023/03/08 12:51:31;;;;;;;6.95;5.15;;;3.80;80.60;;;;;;4996292;28;20034;-79
2023/03/08 12:54:00;;;;;;;7.68;5.15;;;3.80;80.70;;;;;;4997862;28;20036;-80
2023/03/08 12:56:28;;;;;;;9.23;6.25;;;3.80;80.70;;;;;;4997034;28;20068;-79
2023/03/08 12:58:58;;;;;;;6.53;4.65;;;3.80;80.70;;;;;;5034657;28;20047;-79